地図

経路データ

SID SEASON NUMBER BASIN SUBBASIN NAME ISO_TIME NATURE LAT LON WMO_WIND WMO_PRES WMO_AGENCY TRACK_TYPE DIST2LAND LANDFALL IFLAG USA_AGENCY USA_ATCF_ID USA_LAT USA_LON USA_RECORD USA_STATUS USA_WIND USA_PRES USA_SSHS USA_R34_NE USA_R34_SE USA_R34_SW USA_R34_NW USA_R50_NE USA_R50_SE USA_R50_SW USA_R50_NW USA_R64_NE USA_R64_SE USA_R64_SW USA_R64_NW USA_POCI USA_ROCI USA_RMW USA_EYE TOKYO_LAT TOKYO_LON TOKYO_GRADE TOKYO_WIND TOKYO_PRES TOKYO_R50_DIR TOKYO_R50_LONG TOKYO_R50_SHORT TOKYO_R30_DIR TOKYO_R30_LONG TOKYO_R30_SHORT TOKYO_LAND CMA_LAT CMA_LON CMA_CAT CMA_WIND CMA_PRES HKO_LAT HKO_LON HKO_CAT HKO_WIND HKO_PRES NEWDELHI_LAT NEWDELHI_LON NEWDELHI_GRADE NEWDELHI_WIND NEWDELHI_PRES NEWDELHI_CI NEWDELHI_DP NEWDELHI_POCI REUNION_LAT REUNION_LON REUNION_TYPE REUNION_WIND REUNION_PRES REUNION_TNUM REUNION_CI REUNION_RMW REUNION_R34_NE REUNION_R34_SE REUNION_R34_SW REUNION_R34_NW REUNION_R50_NE REUNION_R50_SE REUNION_R50_SW REUNION_R50_NW REUNION_R64_NE REUNION_R64_SE REUNION_R64_SW REUNION_R64_NW BOM_LAT BOM_LON BOM_TYPE BOM_WIND BOM_PRES BOM_TNUM BOM_CI BOM_RMW BOM_R34_NE BOM_R34_SE BOM_R34_SW BOM_R34_NW BOM_R50_NE BOM_R50_SE BOM_R50_SW BOM_R50_NW BOM_R64_NE BOM_R64_SE BOM_R64_SW BOM_R64_NW BOM_ROCI BOM_POCI BOM_EYE BOM_POS_METHOD BOM_PRES_METHOD NADI_LAT NADI_LON NADI_CAT NADI_WIND NADI_PRES WELLINGTON_LAT WELLINGTON_LON WELLINGTON_WIND WELLINGTON_PRES DS824_LAT DS824_LON DS824_STAGE DS824_WIND DS824_PRES TD9636_LAT TD9636_LON TD9636_STAGE TD9636_WIND TD9636_PRES TD9635_LAT TD9635_LON TD9635_WIND TD9635_PRES TD9635_ROCI NEUMANN_LAT NEUMANN_LON NEUMANN_CLASS NEUMANN_WIND NEUMANN_PRES MLC_LAT MLC_LON MLC_CLASS MLC_WIND MLC_PRES USA_GUST BOM_GUST BOM_GUST_PER REUNION_GUST REUNION_GUST_PER USA_SEAHGT USA_SEARAD_NE USA_SEARAD_SE USA_SEARAD_SW USA_SEARAD_NW STORM_SPEED STORM_DIR
1883021S22057 1883 2 SI MM NOT_NAMED 1883-01-21 06:00:00 NR -22.3000 56.7000 reunion main 145 145 _____O________ -1 -22.3000 56.7000 99 9.90000 1 0
1883021S22057 1883 2 SI MM NOT_NAMED 1883-01-21 09:00:00 NR -22.3184 56.7223 main 145 145 _____P________ -1 -22.3184 56.7223 99 1 137
1883021S22057 1883 2 SI MM NOT_NAMED 1883-01-21 12:00:00 NR -22.3410 56.7390 main 145 145 _____P________ -1 -22.3410 56.7390 99 1 163
1883021S22057 1883 2 SI MM NOT_NAMED 1883-01-21 15:00:00 NR -22.3720 56.7443 main 154 154 _____P________ -1 -22.3720 56.7443 99 1 199
1883021S22057 1883 2 SI MM NOT_NAMED 1883-01-21 18:00:00 NR -22.4156 56.7325 main 154 154 _____P________ -1 -22.4156 56.7325 99 1 202
1883021S22057 1883 2 SI MM NOT_NAMED 1883-01-21 21:00:00 NR -22.4760 56.6979 main 163 157 _____P________ -1 -22.4760 56.6979 99 2 212
1883021S22057 1883 2 SI MM NOT_NAMED 1883-01-22 00:00:00 NR -22.5575 56.6349 main 167 167 _____P________ -1 -22.5575 56.6349 99 2 219
1883021S22057 1883 2 SI MM NOT_NAMED 1883-01-22 03:00:00 NR -22.6641 56.5375 main 172 172 _____P________ -1 -22.6641 56.5375 99 3 222
1883021S22057 1883 2 SI MM NOT_NAMED 1883-01-22 06:00:00 NR -22.8000 56.4000 reunion main 176 176 _____O________ -1 -22.8000 56.4000 99 9.90000 4 224
1883021S22057 1883 2 SI MM NOT_NAMED 1883-01-22 09:00:00 NR -22.9694 56.2189 main 189 186 _____P________ -1 -22.9694 56.2189 99 5 224
1883021S22057 1883 2 SI MM NOT_NAMED 1883-01-22 12:00:00 NR -23.1770 56.0007 main 205 203 _____P________ -1 -23.1770 56.0007 99 6 223
1883021S22057 1883 2 SI MM NOT_NAMED 1883-01-22 15:00:00 NR -23.4275 55.7540 main 224 223 _____P________ -1 -23.4275 55.7540 99 7 221
1883021S22057 1883 2 SI MM NOT_NAMED 1883-01-22 18:00:00 NR -23.7260 55.4878 main 257 257 _____P________ -1 -23.7260 55.4878 99 8 217
1883021S22057 1883 2 SI MM NOT_NAMED 1883-01-22 21:00:00 NR -24.0773 55.2105 main 304 304 _____P________ -1 -24.0773 55.2105 99 9 214
1883021S22057 1883 2 SI MM NOT_NAMED 1883-01-23 00:00:00 NR -24.4866 54.9310 main 353 353 _____P________ -1 -24.4866 54.9310 99 10 210
1883021S22057 1883 2 SI MM NOT_NAMED 1883-01-23 03:00:00 NR -24.9591 54.6579 main 412 412 _____P________ -1 -24.9591 54.6579 99 11 205
1883021S22057 1883 2 SI MM NOT_NAMED 1883-01-23 06:00:00 NR -25.5000 54.4000 reunion main 474 474 _____O________ -1 -25.5000 54.4000 99 9.90000 13 201
1883021S22057 1883 2 SI MM NOT_NAMED 1883-01-23 09:00:00 NR -26.1637 54.1419 main 557 557 _____P________ -1 -26.1637 54.1419 99 15 198
1883021S22057 1883 2 SI MM NOT_NAMED 1883-01-23 12:00:00 NR -26.9079 53.8874 main 638 638 _____P________ -1 -26.9079 53.8874 99 16 196
1883021S22057 1883 2 SI MM NOT_NAMED 1883-01-23 15:00:00 NR -27.7083 53.6442 main 713 713 _____P________ -1 -27.7083 53.6442 99 17 194
1883021S22057 1883 2 SI MM NOT_NAMED 1883-01-23 18:00:00 NR -28.5405 53.4204 main 736 736 _____P________ -1 -28.5405 53.4204 99 17 192
1883021S22057 1883 2 SI MM NOT_NAMED 1883-01-23 21:00:00 NR -29.3801 53.2248 main 777 777 _____P________ -1 -29.3801 53.2248 99 17 191
1883021S22057 1883 2 SI MM NOT_NAMED 1883-01-24 00:00:00 NR -30.2027 53.0664 main 827 827 _____P________ -1 -30.2027 53.0664 99 16 188
1883021S22057 1883 2 SI MM NOT_NAMED 1883-01-24 03:00:00 NR -30.9840 52.9548 main 882 882 _____P________ -1 -30.9840 52.9548 99 15 185
1883021S22057 1883 2 SI MM NOT_NAMED 1883-01-24 06:00:00 NR -31.7000 52.9000 reunion main 935 935 _____O________ -1 -31.7000 52.9000 99 9.90000 13 183
1883021S22057 1883 2 SI MM NOT_NAMED 1883-01-24 09:00:00 NR -32.2517 52.8917 main 987 987 _____P________ -1 -32.2517 52.8917 99 10 178
1883021S22057 1883 2 SI MM NOT_NAMED 1883-01-24 12:00:00 NR -32.7455 52.9399 main 1023 1023 _____P________ -1 -32.7455 52.9399 99 10 173
1883021S22057 1883 2 SI MM NOT_NAMED 1883-01-24 15:00:00 NR -33.1942 53.0408 main 1074 1074 _____P________ -1 -33.1942 53.0408 99 9 166
1883021S22057 1883 2 SI MM NOT_NAMED 1883-01-24 18:00:00 NR -33.6104 53.1906 main 1121 1121 _____P________ -1 -33.6104 53.1906 99 9 160
1883021S22057 1883 2 SI MM NOT_NAMED 1883-01-24 21:00:00 NR -34.0066 53.3853 main 1169 1169 _____P________ -1 -34.0066 53.3853 99 9 156
1883021S22057 1883 2 SI MM NOT_NAMED 1883-01-25 00:00:00 NR -34.3953 53.6211 main 1216 1216 _____P________ -1 -34.3953 53.6211 99 9 152
1883021S22057 1883 2 SI MM NOT_NAMED 1883-01-25 03:00:00 NR -34.7890 53.8939 main 1268 1268 _____P________ -1 -34.7890 53.8939 99 9 149
1883021S22057 1883 2 SI MM NOT_NAMED 1883-01-25 06:00:00 NR -35.2000 54.2000 reunion main 1321 1321 _____O________ -1 -35.2000 54.2000 99 9.90000 11 150
1883021S22057 1883 2 SI MM NOT_NAMED 1883-01-25 09:00:00 NR -35.7444 54.5570 main 1387 1387 _____P________ -1 -35.7444 54.5570 99 13 151
1883021S22057 1883 2 SI MM NOT_NAMED 1883-01-25 12:00:00 NR -36.3074 54.9630 main 1463 1463 _____P________ -1 -36.3074 54.9630 99 13 149
1883021S22057 1883 2 SI MM NOT_NAMED 1883-01-25 15:00:00 NR -36.8730 55.4024 main 1538 1538 _____P________ -1 -36.8730 55.4024 99 13 147
1883021S22057 1883 2 SI MM NOT_NAMED 1883-01-25 18:00:00 NR -37.4255 55.8589 main 1609 1576 _____P________ -1 -37.4255 55.8589 99 13 146
1883021S22057 1883 2 SI MM NOT_NAMED 1883-01-25 21:00:00 NR -37.9496 56.3154 main 1576 1511 _____P________ -1 -37.9496 56.3154 99 12 145
1883021S22057 1883 2 SI MM NOT_NAMED 1883-01-26 00:00:00 NR -38.4299 56.7538 main 1505 1454 _____P________ -1 -38.4299 56.7538 99 11 144
1883021S22057 1883 2 SI MM NOT_NAMED 1883-01-26 03:00:00 NR -38.8516 57.1552 main 1440 1398 _____P________ -1 -38.8516 57.1552 99 10 143
1883021S22057 1883 2 SI MM NOT_NAMED 1883-01-26 06:00:00 NR -39.2000 57.5000 reunion main 1398 1356 _____O________ -1 -39.2000 57.5000 99 9.90000 8 142
1883021S22057 1883 2 SI MM NOT_NAMED 1883-01-26 09:00:00 NR -39.4649 57.7730 main 1356 1337 _____P________ -1 -39.4649 57.7730 99 6 141
1883021S22057 1883 2 SI MM NOT_NAMED 1883-01-26 12:00:00 NR -39.6535 57.9779 main 1328 1314 _____P________ -1 -39.6535 57.9779 99 4 139
1883021S22057 1883 2 SI MM NOT_NAMED 1883-01-26 15:00:00 NR -39.7769 58.1235 main 1314 1309 _____P________ -1 -39.7769 58.1235 99 3 136
1883021S22057 1883 2 SI MM NOT_NAMED 1883-01-26 18:00:00 NR -39.8463 58.2192 main 1309 1295 _____P________ -1 -39.8463 58.2192 99 2 129
1883021S22057 1883 2 SI MM NOT_NAMED 1883-01-26 21:00:00 NR -39.8725 58.2747 main 1295 1295 _____P________ -1 -39.8725 58.2747 99 1 111
1883021S22057 1883 2 SI MM NOT_NAMED 1883-01-27 00:00:00 NR -39.8663 58.2999 main 1295 1295 _____P________ -1 -39.8663 58.2999 99 0 31
1883021S22057 1883 2 SI MM NOT_NAMED 1883-01-27 03:00:00 NR -39.8385 58.3050 main 1303 1303 _____P________ -1 -39.8385 58.3050 99 1 15
1883021S22057 1883 2 SI MM NOT_NAMED 1883-01-27 06:00:00 NR -39.8000 58.3000 reunion main 1303 _____O________ -1 -39.8000 58.3000 99 9.90000 1 347

IBTrACS Databaseについて

本データベースは、米国NOAAが公開する1842年以降の世界の熱帯低気圧のベストトラックデータアーカイブInternational Best Track Archive for Climate Stewardship (IBTrACS)を、ウェブで閲覧しやすい形式に変換したものです。

最終更新日:2021-11-26